Schedule Details


Flight Number: CTN441
Departure: Schwechat (LOWW) at 10:10
Arrival: Franjo Tudman (LDZA) at 11:05
Route: SASAL?DCT?SUNIS?DCT?PETOV

Weather Information
LOWW 221550Z 14013KT CAVOK 19/06 Q1013 NOSIG
LDZA 221600Z 21004KT CAVOK 18/12 Q1016 NOSIG
Schedule Frequency

Route Map